| time (UTC) | temp F | wind direction | speed knots | gust knots | rain 1hr in | rain 24hr in | rain mn in | humidity % | barometer mb |
| 20260510072820 | 72 | 304 | 0.0 | 0.0 | 0.00 | 0.00 | 0.00 | 98 | 1014.3 |
| 20260510072317 | 72 | 305 | 0.0 | 0.0 | 0.00 | 0.00 | 0.00 | 98 | 1014.5 |
| 20260510071813 | 72 | 312 | 0.0 | 0.0 | 0.00 | 0.00 | 0.00 | 98 | 1014.6 |
| 20260510071309 | 72 | 312 | 0.0 | 0.0 | 0.00 | 0.00 | 0.00 | 98 | 1014.5 |
| 20260510070808 | 72 | 312 | 0.0 | 0.0 | 0.00 | 0.00 | 0.00 | 98 | 1014.5 |
| 20260510070305 | 72 | 312 | 0.0 | 0.0 | 0.00 | 0.00 | 0.00 | 98 | 1014.7 |
| 20260510065805 | 72 | 303 | 0.0 | 0.0 | 0.00 | 0.00 | 0.00 | 98 | 1014.5 |
| 20260510065305 | 73 | 315 | 0.0 | 0.0 | 0.00 | 0.00 | 0.00 | 98 | 1014.4 |
| 20260510064758 | 73 | 315 | 0.0 | 0.0 | 0.00 | 0.00 | 0.00 | 98 | 1014.6 |
| 20260510064256 | 73 | 304 | 0.0 | 0.0 | 0.00 | 0.00 | 0.00 | 98 | 1014.4 |
| 20260510063752 | 73 | 300 | 0.0 | 0.0 | 0.00 | 0.00 | 0.00 | 97 | 1014.4 |
| 20260510063248 | 73 | 317 | 0.0 | 0.0 | 0.00 | 0.00 | 0.00 | 97 | 1014.6 |
| 20260510062745 | 73 | 320 | 0.0 | 0.0 | 0.00 | 0.00 | 0.00 | 97 | 1014.4 |
| 20260510062241 | 73 | 335 | 0.0 | 0.0 | 0.00 | 0.00 | 0.00 | 97 | 1014.5 |
| 20260510061736 | 73 | 268 | 0.0 | 0.0 | 0.00 | 0.00 | 0.00 | 97 | 1014.6 |
| 20260510061234 | 73 | 184 | 0.0 | 0.0 | 0.00 | 0.00 | 0.00 | 97 | 1014.6 |
| 20260510060730 | 73 | 315 | 0.0 | 0.0 | 0.00 | 0.00 | 0.00 | 97 | 1014.6 |
| 20260510060227 | 73 | 281 | 0.0 | 0.0 | 0.00 | 0.00 | 0.00 | 97 | 1014.7 |
| 20260510055723 | 73 | 276 | 0.0 | 0.0 | 0.00 | 0.00 | 0.00 | 97 | 1014.7 |
| 20260510055222 | 73 | 236 | 0.0 | 0.0 | 0.00 | 0.00 | 0.00 | 97 | 1014.8 |
| 20260510054722 | 73 | 163 | 0.0 | 0.0 | 0.00 | 0.00 | 0.00 | 97 | 1014.5 |
| 20260510054218 | 73 | 303 | 0.0 | 0.0 | 0.00 | 0.00 | 0.00 | 97 | 1014.7 |
| 20260510053717 | 73 | 328 | 0.0 | 0.0 | 0.00 | 0.00 | 0.00 | 97 | 1014.7 |
| 20260510053214 | 73 | 304 | 0.0 | 0.0 | 0.00 | 0.00 | 0.00 | 97 | 1014.5 |
| 20260510052710 | 73 | 241 | 0.0 | 0.0 | 0.00 | 0.00 | 0.00 | 97 | 1014.6 |
| 20260510052206 | 73 | 260 | 0.0 | 0.9 | 0.00 | 0.00 | 0.00 | 97 | 1014.7 |
| 20260510051702 | 73 | 269 | 0.0 | 0.9 | 0.00 | 0.00 | 0.00 | 97 | 1015.1 |
| 20260510051158 | 73 | 212 | 0.0 | 0.9 | 0.00 | 0.00 | 0.00 | 97 | 1014.9 |
| 20260510050656 | 73 | 171 | 0.9 | 0.9 | 0.00 | 0.00 | 0.00 | 97 | 1014.7 |
| 20260510050153 | 73 | 226 | 0.0 | 0.9 | 0.00 | 0.00 | 0.00 | 97 | 1014.8 |
| 20260510045649 | 73 | 184 | 0.9 | 1.7 | 0.00 | 0.64 | 0.64 | 97 | 1014.8 |
| 20260510045146 | 72 | 289 | 0.0 | 1.7 | 0.00 | 0.64 | 0.64 | 97 | 1014.9 |
| 20260510044642 | 72 | 308 | 0.0 | 0.0 | 0.00 | 0.64 | 0.64 | 97 | 1015.0 |
| 20260510044140 | 72 | 333 | 0.0 | 0.0 | 0.00 | 0.64 | 0.64 | 97 | 1014.9 |
| 20260510043636 | 72 | 287 | 0.0 | 0.0 | 0.00 | 0.64 | 0.64 | 97 | 1015.0 |
| 20260510043132 | 71 | 219 | 0.0 | 0.0 | 0.00 | 0.64 | 0.64 | 97 | 1014.9 |
| 20260510042630 | 71 | 345 | 0.0 | 0.0 | 0.00 | 0.64 | 0.64 | 97 | 1015.1 |
| 20260510042126 | 71 | 299 | 0.0 | 0.9 | 0.00 | 0.64 | 0.64 | 97 | 1014.9 |
| 20260510041623 | 71 | 201 | 0.0 | 0.0 | 0.00 | 0.64 | 0.64 | 97 | 1014.7 |
| 20260510041120 | 71 | 331 | 0.0 | 0.0 | 0.00 | 0.64 | 0.64 | 97 | 1015.1 |
| 20260510040618 | 71 | 333 | 0.0 | 0.0 | 0.00 | 0.64 | 0.64 | 96 | 1014.9 |
| 20260510040114 | 71 | 94 | 0.0 | 0.0 | 0.00 | 0.64 | 0.64 | 97 | 1014.9 |
| 20260510035609 | 71 | 149 | 0.0 | 0.0 | 0.00 | 0.64 | 0.64 | 96 | 1014.9 |
| 20260510035104 | 71 | 329 | 0.0 | 0.0 | 0.00 | 0.64 | 0.64 | 96 | 1015.0 |
| 20260510034602 | 71 | 286 | 0.0 | 0.0 | 0.00 | 0.64 | 0.64 | 96 | 1015.1 |
| 20260510034059 | 71 | 307 | 0.0 | 0.0 | 0.00 | 0.64 | 0.64 | 96 | 1014.9 |
| 20260510033555 | 71 | 32 | 0.0 | 0.0 | 0.00 | 0.64 | 0.64 | 96 | 1015.2 |
| 20260510033053 | 71 | 157 | 2.6 | 2.6 | 0.00 | 0.64 | 0.64 | 96 | 1014.9 |
| 20260510032549 | 71 | 304 | 0.0 | 2.6 | 0.00 | 0.64 | 0.64 | 96 | 1015.2 |
| 20260510032044 | 71 | 218 | 0.0 | 1.7 | 0.00 | 0.64 | 0.64 | 96 | 1015.2 |
| 20260510031539 | 72 | 55 | 0.0 | 1.7 | 0.00 | 0.64 | 0.64 | 96 | 1015.2 |
| 20260510031035 | 73 | 22 | 0.0 | 0.0 | 0.00 | 0.64 | 0.64 | 96 | 1015.5 |
| 20260510030531 | 73 | 341 | 0.0 | 4.3 | 0.00 | 0.64 | 0.64 | 96 | 1015.3 |
| 20260510030029 | 74 | 102 | 0.9 | 1.7 | 0.00 | 0.64 | 0.64 | 96 | 1015.1 |
| 20260510025526 | 75 | 3 | 0.9 | 2.6 | 0.00 | 0.64 | 0.64 | 96 | 1014.8 |
| 20260510025023 | 75 | 304 | 0.9 | 1.7 | 0.00 | 0.64 | 0.64 | 97 | 1014.7 |
| 20260510024520 | 76 | 171 | 0.0 | 2.6 | 0.00 | 0.64 | 0.64 | 97 | 1014.6 |
| 20260510024016 | 75 | 77 | 0.9 | 4.3 | 0.00 | 0.64 | 0.64 | 97 | 1014.5 |
| 20260510023512 | 75 | 146 | 0.9 | 1.7 | 0.00 | 0.64 | 0.64 | 97 | 1014.6 |
| 20260510023009 | 74 | 170 | 0.0 | 1.7 | 0.00 | 0.64 | 0.64 | 97 | 1014.3 |
| 20260510022508 | 74 | 19 | 0.0 | 0.9 | 0.00 | 0.64 | 0.64 | 97 | 1013.8 |
| 20260510022008 | 74 | 146 | 0.0 | 0.0 | 0.00 | 0.64 | 0.64 | 97 | 1013.9 |
| 20260510021505 | 73 | 278 | 0.0 | 0.0 | 0.00 | 0.64 | 0.64 | 96 | 1013.6 |
| 20260510021003 | 73 | 207 | 0.0 | 0.0 | 0.00 | 0.64 | 0.64 | 96 | 1013.3 |
| 20260510020456 | 73 | 289 | 0.0 | 0.0 | 0.00 | 0.64 | 0.64 | 96 | 1013.2 |
| 20260510015952 | 73 | 57 | 0.0 | 0.9 | 0.05 | 0.64 | 0.64 | 96 | 1013.0 |
| 20260510015448 | 73 | 317 | 0.0 | 0.0 | 0.00 | 0.63 | 0.63 | 96 | 1012.9 |
| 20260510014944 | 73 | 265 | 0.0 | 0.9 | 0.00 | 0.63 | 0.63 | 96 | 1013.0 |
| 20260510014442 | 73 | 207 | 0.9 | 0.9 | 0.00 | 0.63 | 0.63 | 95 | 1012.7 |
| 20260510013938 | 73 | 293 | 0.0 | 0.0 | 0.00 | 0.63 | 0.63 | 95 | 1012.7 |
| 20260510013432 | 73 | 329 | 0.0 | 0.0 | 0.00 | 0.63 | 0.63 | 95 | 1012.2 |
| 20260510012928 | 73 | 218 | 0.0 | 0.9 | 0.12 | 0.63 | 0.63 | 95 | 1012.5 |
| 20260510012423 | 72 | 334 | 0.0 | 0.0 | 0.61 | 0.63 | 0.63 | 94 | 1012.4 |
| 20260510011918 | 72 | 297 | 0.0 | 0.0 | 1.28 | 0.61 | 0.61 | 94 | 1012.3 |
| 20260510011414 | 72 | 4 | 0.0 | 0.9 | 1.09 | 0.52 | 0.52 | 93 | 1012.5 |
| 20260510010910 | 72 | 341 | 0.0 | 1.7 | 0.85 | 0.39 | 0.39 | 92 | 1012.6 |
| 20260510010408 | 73 | 342 | 0.9 | 0.9 | 1.06 | 0.33 | 0.33 | 91 | 1012.6 |
| 20260510005904 | 75 | 350 | 2.6 | 2.6 | 1.37 | 0.25 | 0.25 | 89 | 1012.4 |
| 20260510005400 | 78 | 250 | 4.3 | 6.1 | 0.83 | 0.14 | 0.14 | 84 | 1012.5 |
| 20260510004858 | 84 | 249 | 2.6 | 5.2 | 0.05 | 0.01 | 0.01 | 72 | 1012.1 |
| 20260510004355 | 86 | 284 | 0.9 | 1.7 | 0.00 | 0.00 | 0.00 | 65 | 1012.0 |
| 20260510003853 | 86 | 218 | 0.9 | 1.7 | 0.00 | 0.00 | 0.00 | 65 | 1011.8 |
| 20260510003350 | 86 | 152 | 1.7 | 2.6 | 0.00 | 0.00 | 0.00 | 68 | 1011.7 |
| 20260510002848 | 86 | 271 | 0.0 | 0.0 | 0.00 | 0.00 | 0.00 | 69 | 1011.4 |
| 20260510002346 | 86 | 156 | 0.0 | 0.9 | 0.00 | 0.00 | 0.00 | 69 | 1011.3 |
| 20260510001842 | 87 | 263 | 0.0 | 0.0 | 0.00 | 0.00 | 0.00 | 68 | 1011.7 |
| 20260510001341 | 87 | 266 | 0.0 | 0.0 | 0.00 | 0.00 | 0.00 | 68 | 1011.5 |
| 20260510000836 | 87 | 262 | 0.0 | 0.0 | 0.00 | 0.00 | 0.00 | 66 | 1011.2 |
| 20260510000334 | 87 | 215 | 0.0 | 0.9 | 0.00 | 0.00 | 0.00 | 66 | 1011.1 |
| 20260509235830 | 88 | 282 | 0.0 | 0.0 | 0.00 | 0.00 | 0.00 | 67 | 1011.3 |
| 20260509235327 | 88 | 287 | 0.0 | 0.0 | 0.00 | 0.00 | 0.00 | 66 | 1011.2 |
| 20260509234823 | 88 | 295 | 0.0 | 0.0 | 0.00 | 0.00 | 0.00 | 66 | 1011.2 |
| 20260509234320 | 88 | 297 | 0.0 | 0.9 | 0.00 | 0.00 | 0.00 | 66 | 1011.5 |
| 20260509233818 | 88 | 269 | 0.0 | 0.0 | 0.00 | 0.00 | 0.00 | 65 | 1011.1 |
| 20260509233315 | 89 | 308 | 0.0 | 0.9 | 0.00 | 0.00 | 0.00 | 65 | 1011.5 |
| 20260509232811 | 88 | 288 | 0.0 | 0.9 | 0.00 | 0.00 | 0.00 | 65 | 1011.2 |
| 20260509232309 | 88 | 1 | 0.0 | 0.9 | 0.00 | 0.00 | 0.00 | 65 | 1011.3 |
| 20260509231805 | 89 | 237 | 0.0 | 0.0 | 0.00 | 0.00 | 0.00 | 64 | 1011.2 |
| 20260509231302 | 89 | 232 | 0.9 | 1.7 | 0.00 | 0.00 | 0.00 | 63 | 1011.3 |
| 20260509230800 | 90 | 250 | 0.0 | 0.0 | 0.00 | 0.00 | 0.00 | 62 | 1011.2 |
| 20260509230257 | 90 | 295 | 0.0 | 0.0 | 0.00 | 0.00 | 0.00 | 62 | 1011.2 |
| 20260509225751 | 91 | 313 | 0.0 | 0.0 | 0.00 | 0.00 | 0.00 | 61 | 1010.9 |
| 20260509225248 | 91 | 304 | 0.0 | 0.0 | 0.00 | 0.00 | 0.00 | 59 | 1010.8 |
| 20260509224743 | 92 | 310 | 0.0 | 0.9 | 0.00 | 0.00 | 0.00 | 58 | 1010.9 |
| 20260509224241 | 93 | 298 | 0.0 | 0.0 | 0.00 | 0.00 | 0.00 | 55 | 1011.1 |
| 20260509223738 | 91 | 340 | 0.0 | 0.0 | 0.00 | 0.00 | 0.00 | 58 | 1011.2 |
| 20260509223235 | 92 | 329 | 0.0 | 0.0 | 0.00 | 0.00 | 0.00 | 57 | 1011.0 |
| 20260509222731 | 92 | 311 | 0.0 | 0.0 | 0.00 | 0.00 | 0.00 | 58 | 1010.9 |
| 20260509222226 | 93 | 221 | 0.0 | 1.7 | 0.00 | 0.00 | 0.00 | 60 | 1011.2 |
| 20260509221722 | 92 | 305 | 0.9 | 1.7 | 0.00 | 0.00 | 0.00 | 60 | 1011.0 |
| 20260509221219 | 92 | 316 | 0.0 | 0.9 | 0.00 | 0.00 | 0.00 | 60 | 1010.6 |
| 20260509220715 | 93 | 317 | 0.9 | 0.9 | 0.00 | 0.00 | 0.00 | 60 | 1011.1 |
| 20260509220212 | 93 | 80 | 0.9 | 1.7 | 0.00 | 0.00 | 0.00 | 59 | 1011.0 |
| 20260509215707 | 93 | 292 | 0.9 | 1.7 | 0.00 | 0.00 | 0.00 | 60 | 1010.8 |
| 20260509215204 | 92 | 287 | 0.0 | 0.9 | 0.00 | 0.00 | 0.00 | 61 | 1011.0 |
| 20260509214701 | 93 | 49 | 0.9 | 1.7 | 0.00 | 0.00 | 0.00 | 60 | 1010.9 |
| 20260509214158 | 94 | 315 | 0.9 | 0.9 | 0.00 | 0.00 | 0.00 | 58 | 1011.0 |
| 20260509213655 | 93 | 7 | 0.9 | 1.7 | 0.00 | 0.00 | 0.00 | 56 | 1011.0 |
| 20260509213150 | 93 | 241 | 1.7 | 2.6 | 0.00 | 0.00 | 0.00 | 57 | 1011.0 |
| 20260509212648 | 93 | 291 | 0.9 | 0.9 | 0.00 | 0.00 | 0.00 | 59 | 1011.2 |
| 20260509212144 | 93 | 320 | 0.9 | 0.9 | 0.00 | 0.00 | 0.00 | 62 | 1011.1 |
| 20260509211635 | 91 | 74 | 0.0 | 0.9 | 0.00 | 0.00 | 0.00 | 63 | 1010.9 |
| 20260509211132 | 91 | 30 | 0.9 | 2.6 | 0.00 | 0.00 | 0.00 | 63 | 1011.0 |
| 20260509210629 | 91 | 290 | 0.0 | 0.9 | 0.00 | 0.00 | 0.00 | 62 | 1010.8 |
| 20260509210126 | 92 | 9 | 0.0 | 0.9 | 0.00 | 0.00 | 0.00 | 64 | 1011.4 |
| 20260509205621 | 91 | 257 | 1.7 | 1.7 | 0.00 | 0.00 | 0.00 | 64 | 1011.1 |
| 20260509205115 | 90 | 273 | 0.0 | 2.6 | 0.00 | 0.00 | 0.00 | 65 | 1011.5 |
| 20260509204612 | 90 | 243 | 0.9 | 0.9 | 0.00 | 0.00 | 0.00 | 63 | 1011.6 |
| 20260509204108 | 89 | 314 | 0.9 | 0.9 | 0.00 | 0.00 | 0.00 | 67 | 1011.7 |
| 20260509203604 | 90 | 293 | 0.0 | 1.7 | 0.00 | 0.00 | 0.00 | 67 | 1011.8 |
| 20260509203103 | 91 | 107 | 0.9 | 1.7 | 0.00 | 0.00 | 0.00 | 64 | 1011.8 |
| 20260509202557 | 91 | 284 | 0.0 | 0.9 | 0.00 | 0.00 | 0.00 | 64 | 1011.9 |
| 20260509202053 | 89 | 17 | 0.9 | 1.7 | 0.00 | 0.00 | 0.00 | 66 | 1011.7 |
| 20260509201547 | 91 | 69 | 0.9 | 1.7 | 0.00 | 0.00 | 0.00 | 65 | 1011.7 |
| 20260509201045 | 91 | 311 | 0.0 | 1.7 | 0.00 | 0.00 | 0.00 | 65 | 1011.8 |
| 20260509200539 | 91 | 293 | 0.9 | 1.7 | 0.00 | 0.00 | 0.00 | 64 | 1012.0 |
| 20260509200036 | 91 | 263 | 0.0 | 0.9 | 0.00 | 0.00 | 0.00 | 62 | 1011.9 |
| 20260509195532 | 90 | 293 | 0.0 | 1.7 | 0.00 | 0.00 | 0.00 | 64 | 1011.9 |
| 20260509195032 | 89 | 327 | 0.9 | 0.9 | 0.00 | 0.00 | 0.00 | 67 | 1012.2 |
| 20260509194527 | 91 | 284 | 0.0 | 0.9 | 0.00 | 0.00 | 0.00 | 64 | 1012.2 |
| 20260509194025 | 91 | 321 | 0.0 | 0.0 | 0.00 | 0.00 | 0.00 | 64 | 1012.1 |
| 20260509193525 | 90 | 207 | 0.0 | 1.7 | 0.00 | 0.00 | 0.00 | 66 | 1012.3 |
| 20260509193022 | 89 | 223 | 0.9 | 4.3 | 0.00 | 0.00 | 0.00 | 67 | 1012.1 |
| 20260509192518 | 91 | 181 | 1.7 | 4.3 | 0.00 | 0.00 | 0.00 | 64 | 1012.4 |
| 20260509192013 | 90 | 310 | 0.0 | 1.7 | 0.00 | 0.00 | 0.00 | 65 | 1012.3 |
| 20260509191508 | 89 | 289 | 0.0 | 1.7 | 0.00 | 0.00 | 0.00 | 66 | 1012.5 |
| 20260509191004 | 90 | 250 | 1.7 | 2.6 | 0.00 | 0.00 | 0.00 | 66 | 1012.7 |
| 20260509190501 | 89 | 276 | 1.7 | 1.7 | 0.00 | 0.00 | 0.00 | 65 | 1012.4 |
| 20260509185959 | 89 | 315 | 0.0 | 0.9 | 0.00 | 0.00 | 0.00 | 66 | 1012.3 |
| 20260509185456 | 89 | 253 | 0.0 | 1.7 | 0.00 | 0.00 | 0.00 | 65 | 1012.6 |
| 20260509184952 | 87 | 208 | 0.0 | 1.7 | 0.00 | 0.00 | 0.00 | 67 | 1012.6 |
| 20260509184451 | 87 | 263 | 0.9 | 1.7 | 0.00 | 0.00 | 0.00 | 69 | 1012.7 |
| 20260509183947 | 87 | 216 | 1.7 | 2.6 | 0.00 | 0.00 | 0.00 | 70 | 1013.1 |
| 20260509183441 | 87 | 297 | 0.0 | 1.7 | 0.00 | 0.00 | 0.00 | 70 | 1012.9 |
| 20260509182938 | 86 | 320 | 0.0 | 1.7 | 0.00 | 0.00 | 0.00 | 70 | 1013.0 |
| 20260509182434 | 86 | 26 | 1.7 | 4.3 | 0.00 | 0.00 | 0.00 | 71 | 1013.2 |
| 20260509181931 | 86 | 286 | 0.9 | 1.7 | 0.00 | 0.00 | 0.00 | 72 | 1013.3 |
| 20260509181430 | 86 | 157 | 0.9 | 1.7 | 0.00 | 0.00 | 0.00 | 73 | 1013.1 |
| 20260509180927 | 86 | 233 | 0.9 | 1.7 | 0.00 | 0.00 | 0.00 | 73 | 1013.3 |
| 20260509180422 | 85 | 293 | 0.0 | 0.9 | 0.00 | 0.00 | 0.00 | 75 | 1013.3 |
| 20260509175919 | 85 | 309 | 0.0 | 0.9 | 0.00 | 0.00 | 0.00 | 75 | 1013.6 |
| 20260509175415 | 85 | 114 | 0.9 | 1.7 | 0.00 | 0.00 | 0.00 | 75 | 1013.6 |
| 20260509174911 | 85 | 294 | 0.9 | 2.6 | 0.00 | 0.00 | 0.00 | 75 | 1013.7 |
| 20260509174408 | 85 | 143 | 0.9 | 2.6 | 0.00 | 0.00 | 0.00 | 75 | 1013.6 |
| 20260509173903 | 86 | 83 | 1.7 | 2.6 | 0.00 | 0.00 | 0.00 | 75 | 1013.5 |
| 20260509173358 | 86 | 301 | 1.7 | 4.3 | 0.00 | 0.00 | 0.00 | 75 | 1013.6 |
| 20260509172854 | 85 | 241 | 0.9 | 7.0 | 0.00 | 0.00 | 0.00 | 77 | 1013.8 |
| 20260509172351 | 85 | 317 | 0.0 | 2.6 | 0.00 | 0.00 | 0.00 | 77 | 1013.9 |
| 20260509171847 | 85 | 161 | 2.6 | 2.6 | 0.00 | 0.00 | 0.00 | 77 | 1013.7 |
| 20260509171343 | 85 | 189 | 1.7 | 2.6 | 0.00 | 0.00 | 0.00 | 76 | 1013.5 |
| 20260509170840 | 84 | 279 | 0.0 | 0.9 | 0.00 | 0.00 | 0.00 | 78 | 1013.6 |
| 20260509170336 | 84 | 351 | 0.0 | 0.9 | 0.00 | 0.00 | 0.00 | 79 | 1013.4 |
| 20260509165830 | 84 | 227 | 0.9 | 4.3 | 0.00 | 0.00 | 0.00 | 79 | 1013.6 |
| 20260509165325 | 83 | 292 | 0.9 | 1.7 | 0.00 | 0.00 | 0.00 | 79 | 1013.5 |
| 20260509164821 | 82 | 216 | 0.0 | 1.7 | 0.00 | 0.00 | 0.00 | 81 | 1013.5 |
| 20260509164318 | 82 | 297 | 0.0 | 0.9 | 0.00 | 0.00 | 0.00 | 82 | 1013.6 |
| 20260509163814 | 81 | 278 | 0.0 | 1.7 | 0.00 | 0.00 | 0.00 | 83 | 1013.6 |
| 20260509163310 | 80 | 234 | 0.9 | 0.9 | 0.00 | 0.00 | 0.00 | 83 | 1013.5 |
| 20260509162810 | 80 | 35 | 0.0 | 0.9 | 0.00 | 0.00 | 0.00 | 83 | 1014.0 |
| 20260509162306 | 80 | 209 | 0.0 | 1.7 | 0.00 | 0.00 | 0.00 | 83 | 1013.9 |
| 20260509161759 | 81 | 210 | 0.9 | 0.9 | 0.00 | 0.00 | 0.00 | 83 | 1014.1 |
| 20260509161255 | 80 | 240 | 0.0 | 0.0 | 0.00 | 0.00 | 0.00 | 84 | 1014.1 |
| 20260509160751 | 80 | 310 | 0.0 | 0.0 | 0.00 | 0.00 | 0.00 | 85 | 1014.1 |
| 20260509160247 | 80 | 317 | 0.0 | 0.0 | 0.00 | 0.00 | 0.00 | 86 | 1014.1 |
| 20260509155742 | 79 | 285 | 0.9 | 0.9 | 0.00 | 0.00 | 0.00 | 86 | 1014.0 |
| 20260509155239 | 79 | 316 | 0.0 | 0.0 | 0.00 | 0.00 | 0.00 | 87 | 1013.9 |
| 20260509154735 | 79 | 328 | 0.0 | 0.0 | 0.00 | 0.00 | 0.00 | 87 | 1014.0 |
| 20260509154232 | 79 | 298 | 0.0 | 0.0 | 0.00 | 0.00 | 0.00 | 87 | 1014.1 |
| 20260509153729 | 79 | 294 | 0.0 | 0.0 | 0.00 | 0.00 | 0.00 | 86 | 1014.1 |
| 20260509153220 | 79 | 314 | 0.0 | 0.0 | 0.00 | 0.00 | 0.00 | 86 | 1014.2 |
| 20260509152716 | 79 | 303 | 0.0 | 0.0 | 0.00 | 0.00 | 0.00 | 87 | 1014.2 |
| 20260509152213 | 78 | 292 | 0.0 | 0.0 | 0.00 | 0.00 | 0.00 | 88 | 1014.2 |
| 20260509151710 | 78 | 280 | 0.0 | 0.9 | 0.00 | 0.00 | 0.00 | 88 | 1014.3 |
| 20260509151207 | 77 | 276 | 0.0 | 0.9 | 0.00 | 0.00 | 0.00 | 89 | 1013.8 |
| 20260509150705 | 77 | 308 | 0.0 | 0.0 | 0.00 | 0.00 | 0.00 | 91 | 1014.3 |
| 20260509150203 | 77 | 211 | 0.0 | 0.9 | 0.00 | 0.00 | 0.00 | 91 | 1014.0 |
| 20260509145659 | 77 | 320 | 0.0 | 0.0 | 0.00 | 0.00 | 0.00 | 92 | 1013.8 |
| 20260509145154 | 76 | 310 | 0.0 | 0.0 | 0.00 | 0.00 | 0.00 | 93 | 1013.7 |
| 20260509144651 | 76 | 291 | 0.0 | 0.0 | 0.00 | 0.00 | 0.00 | 94 | 1013.7 |
| 20260509144148 | 76 | 337 | 0.0 | 0.0 | 0.00 | 0.00 | 0.00 | 94 | 1013.7 |
| 20260509143645 | 76 | 318 | 0.0 | 0.0 | 0.00 | 0.00 | 0.00 | 95 | 1013.8 |
| 20260509143143 | 76 | 264 | 0.0 | 0.0 | 0.00 | 0.00 | 0.00 | 95 | 1013.7 |
| 20260509142638 | 76 | 309 | 0.0 | 0.0 | 0.00 | 0.00 | 0.00 | 95 | 1013.7 |
| 20260509142135 | 75 | 310 | 0.0 | 0.0 | 0.00 | 0.00 | 0.00 | 96 | 1013.9 |
| 20260509141630 | 75 | 310 | 0.0 | 0.0 | 0.00 | 0.00 | 0.00 | 96 | 1013.5 |
| 20260509141127 | 75 | 285 | 0.0 | 0.0 | 0.00 | 0.00 | 0.00 | 96 | 1013.4 |
| 20260509140624 | 75 | 350 | 0.0 | 0.0 | 0.00 | 0.00 | 0.00 | 96 | 1013.1 |
| 20260509140122 | 75 | 313 | 0.0 | 0.0 | 0.00 | 0.00 | 0.00 | 96 | 1013.5 |
| 20260509135619 | 75 | 297 | 0.0 | 0.0 | 0.00 | 0.00 | 0.00 | 96 | 1013.7 |
| 20260509135117 | 75 | 313 | 0.0 | 0.0 | 0.00 | 0.00 | 0.00 | 96 | 1013.3 |
| 20260509134613 | 75 | 187 | 0.0 | 0.0 | 0.00 | 0.00 | 0.00 | 97 | 1013.5 |
| 20260509134111 | 75 | 39 | 0.0 | 0.0 | 0.00 | 0.00 | 0.00 | 97 | 1013.5 |
| 20260509133608 | 75 | 341 | 0.0 | 0.0 | 0.00 | 0.00 | 0.00 | 97 | 1013.8 |
| 20260509133105 | 75 | 312 | 0.0 | 0.0 | 0.00 | 0.00 | 0.00 | 97 | 1013.9 |
| 20260509132603 | 75 | 316 | 0.9 | 1.7 | 0.00 | 0.00 | 0.00 | 97 | 1013.9 |
| 20260509132102 | 75 | 275 | 0.9 | 1.7 | 0.00 | 0.00 | 0.00 | 97 | 1013.9 |
| 20260509131557 | 74 | 280 | 0.0 | 0.0 | 0.00 | 0.00 | 0.00 | 97 | 1013.8 |
| 20260509131054 | 74 | 269 | 0.0 | 0.0 | 0.00 | 0.00 | 0.00 | 97 | 1014.0 |
| 20260509130550 | 74 | 263 | 0.0 | 0.0 | 0.00 | 0.00 | 0.00 | 97 | 1014.1 |
| 20260509130047 | 74 | 328 | 0.0 | 0.0 | 0.00 | 0.00 | 0.00 | 97 | 1014.1 |
| 20260509125543 | 74 | 313 | 0.0 | 0.0 | 0.00 | 0.00 | 0.00 | 97 | 1014.4 |
| 20260509125040 | 74 | 322 | 0.0 | 0.0 | 0.00 | 0.00 | 0.00 | 97 | 1014.2 |
| 20260509124536 | 74 | 307 | 0.0 | 0.0 | 0.00 | 0.00 | 0.00 | 97 | 1014.4 |
| 20260509124034 | 74 | 306 | 0.0 | 0.0 | 0.00 | 0.00 | 0.00 | 97 | 1014.0 |
| 20260509123532 | 74 | 307 | 0.0 | 0.0 | 0.00 | 0.00 | 0.00 | 97 | 1013.8 |
| 20260509123027 | 73 | 290 | 0.0 | 0.0 | 0.00 | 0.00 | 0.00 | 97 | 1014.0 |
| 20260509122523 | 73 | 288 | 0.0 | 0.0 | 0.00 | 0.00 | 0.00 | 97 | 1013.8 |
| 20260509122020 | 73 | 245 | 0.0 | 0.0 | 0.00 | 0.00 | 0.00 | 97 | 1013.7 |
| 20260509121512 | 73 | 274 | 0.0 | 0.0 | 0.00 | 0.00 | 0.00 | 97 | 1013.6 |
| 20260509121010 | 73 | 278 | 0.0 | 0.0 | 0.00 | 0.00 | 0.00 | 97 | 1013.4 |
| 20260509120508 | 73 | 265 | 0.0 | 0.0 | 0.00 | 0.00 | 0.00 | 97 | 1013.3 |
| 20260509120006 | 73 | 299 | 0.0 | 0.0 | 0.00 | 0.00 | 0.00 | 97 | 1013.3 |
| 20260509115503 | 73 | 271 | 0.0 | 0.0 | 0.00 | 0.00 | 0.00 | 97 | 1013.1 |
| 20260509115000 | 73 | 303 | 0.0 | 0.0 | 0.00 | 0.00 | 0.00 | 97 | 1013.0 |
| 20260509114458 | 73 | 288 | 0.0 | 0.0 | 0.00 | 0.00 | 0.00 | 97 | 1013.3 |
| 20260509113957 | 73 | 274 | 0.0 | 0.0 | 0.00 | 0.00 | 0.00 | 97 | 1013.3 |
| 20260509113454 | 73 | 288 | 0.0 | 0.0 | 0.00 | 0.00 | 0.00 | 97 | 1013.5 |
| 20260509112951 | 73 | 290 | 0.0 | 0.0 | 0.00 | 0.00 | 0.00 | 97 | 1013.5 |
| 20260509112448 | 73 | 245 | 0.0 | 0.0 | 0.00 | 0.00 | 0.00 | 97 | 1013.4 |
| 20260509111944 | 73 | 290 | 0.0 | 0.0 | 0.00 | 0.00 | 0.00 | 97 | 1013.6 |
| 20260509111442 | 73 | 285 | 0.0 | 0.0 | 0.00 | 0.00 | 0.00 | 97 | 1013.7 |
| 20260509110940 | 73 | 294 | 0.0 | 0.0 | 0.00 | 0.00 | 0.00 | 97 | 1014.1 |
| 20260509110435 | 73 | 314 | 0.0 | 0.0 | 0.00 | 0.00 | 0.00 | 97 | 1013.8 |
| 20260509105934 | 73 | 293 | 0.0 | 0.0 | 0.00 | 0.00 | 0.00 | 97 | 1013.7 |
| 20260509105432 | 73 | 299 | 0.0 | 0.0 | 0.00 | 0.00 | 0.00 | 97 | 1013.5 |
| 20260509104929 | 73 | 310 | 0.0 | 0.0 | 0.00 | 0.00 | 0.00 | 97 | 1013.6 |
| 20260509104426 | 73 | 322 | 0.0 | 0.0 | 0.00 | 0.00 | 0.00 | 97 | 1013.5 |
| 20260509103923 | 73 | 315 | 0.0 | 0.9 | 0.00 | 0.00 | 0.00 | 97 | 1013.6 |
| 20260509103420 | 73 | 319 | 0.0 | 0.0 | 0.00 | 0.00 | 0.00 | 97 | 1013.5 |
| 20260509102918 | 73 | 319 | 0.0 | 0.0 | 0.00 | 0.00 | 0.00 | 97 | 1013.3 |
| 20260509102415 | 73 | 302 | 0.0 | 0.0 | 0.00 | 0.00 | 0.00 | 97 | 1013.1 |
| 20260509101911 | 73 | 301 | 0.0 | 0.0 | 0.00 | 0.00 | 0.00 | 97 | 1013.2 |
| 20260509101408 | 73 | 293 | 0.0 | 0.0 | 0.00 | 0.00 | 0.00 | 97 | 1012.8 |
| 20260509100905 | 73 | 319 | 0.0 | 0.0 | 0.00 | 0.00 | 0.00 | 96 | 1012.7 |
| 20260509100402 | 73 | 322 | 0.0 | 0.0 | 0.00 | 0.00 | 0.00 | 96 | 1012.6 |
| 20260509095859 | 73 | 263 | 0.0 | 0.0 | 0.00 | 0.00 | 0.00 | 96 | 1012.4 |
| 20260509095356 | 73 | 298 | 0.0 | 0.0 | 0.00 | 0.00 | 0.00 | 96 | 1012.4 |
| 20260509094853 | 73 | 244 | 0.0 | 0.9 | 0.00 | 0.00 | 0.00 | 96 | 1012.3 |
| 20260509094350 | 73 | 314 | 0.0 | 0.0 | 0.00 | 0.00 | 0.00 | 96 | 1012.6 |
| 20260509093848 | 73 | 324 | 0.0 | 0.9 | 0.00 | 0.00 | 0.00 | 96 | 1012.8 |
| 20260509093344 | 73 | 306 | 0.0 | 0.0 | 0.00 | 0.00 | 0.00 | 96 | 1012.9 |
| 20260509092843 | 74 | 289 | 0.0 | 0.0 | 0.00 | 0.00 | 0.00 | 96 | 1013.0 |
| 20260509092340 | 74 | 247 | 0.0 | 0.0 | 0.00 | 0.00 | 0.00 | 96 | 1013.1 |
| 20260509091838 | 74 | 316 | 0.0 | 0.0 | 0.00 | 0.00 | 0.00 | 96 | 1013.2 |
| 20260509091335 | 74 | 313 | 0.0 | 0.0 | 0.00 | 0.00 | 0.00 | 96 | 1013.2 |
| 20260509090832 | 74 | 325 | 0.0 | 0.0 | 0.00 | 0.00 | 0.00 | 96 | 1013.0 |
| 20260509090330 | 74 | 294 | 0.0 | 0.0 | 0.00 | 0.00 | 0.00 | 96 | 1013.0 |
| 20260509085827 | 74 | 298 | 0.0 | 0.0 | 0.00 | 0.00 | 0.00 | 96 | 1013.3 |
| 20260509085324 | 74 | 301 | 0.0 | 0.0 | 0.00 | 0.00 | 0.00 | 96 | 1013.2 |
| 20260509084820 | 74 | 297 | 0.0 | 0.0 | 0.00 | 0.00 | 0.00 | 96 | 1013.1 |
| 20260509084317 | 74 | 297 | 0.0 | 0.0 | 0.00 | 0.00 | 0.00 | 96 | 1013.3 |
| 20260509083815 | 74 | 294 | 0.0 | 0.0 | 0.00 | 0.00 | 0.00 | 96 | 1013.1 |
| 20260509083312 | 74 | 299 | 0.0 | 0.0 | 0.00 | 0.00 | 0.00 | 96 | 1013.1 |
| 20260509082808 | 74 | 294 | 0.0 | 0.0 | 0.00 | 0.00 | 0.00 | 96 | 1013.0 |
| 20260509082307 | 74 | 294 | 0.0 | 0.0 | 0.00 | 0.00 | 0.00 | 96 | 1013.3 |
| 20260509081802 | 74 | 280 | 0.0 | 0.0 | 0.00 | 0.00 | 0.00 | 96 | 1013.3 |
| 20260509081259 | 74 | 248 | 0.0 | 0.0 | 0.00 | 0.00 | 0.00 | 96 | 1012.7 |
| 20260509080758 | 74 | 235 | 0.0 | 0.0 | 0.00 | 0.00 | 0.00 | 96 | 1012.9 |
| 20260509080255 | 74 | 265 | 0.0 | 0.0 | 0.00 | 0.00 | 0.00 | 96 | 1012.8 |
| 20260509075753 | 74 | 152 | 0.0 | 0.9 | 0.00 | 0.00 | 0.00 | 96 | 1012.8 |
| 20260509075250 | 74 | 283 | 0.0 | 0.0 | 0.00 | 0.00 | 0.00 | 96 | 1012.9 |
| 20260509074747 | 74 | 263 | 0.0 | 0.0 | 0.00 | 0.00 | 0.00 | 96 | 1013.1 |
| 20260509074245 | 74 | 269 | 0.0 | 0.0 | 0.00 | 0.00 | 0.00 | 96 | 1013.1 |
| 20260509073740 | 74 | 345 | 0.0 | 0.0 | 0.00 | 0.00 | 0.00 | 95 | 1013.2 |
| 20260509073237 | 73 | 315 | 0.0 | 0.0 | 0.00 | 0.00 | 0.00 | 95 | 1013.2 |